Time;durP1;ratioP1;P1;durP2;ratioP2;P2;SDS_P1;SDS_P2;PMS_P1;PMS_P2;Temp;Humidity;BMP_temperature;BMP_pressure;BME280_temperature;BME280_humidity;BME280_pressure;Samples;Min_cycle;Max_cycle;Signal;HPM_P1;HPM_P2
2023/02/17 00:00:15;;;;;;;0.20;0.10;;;7.40;99.90;;;;;;21142524;28;20443;-69
2023/02/17 00:10:21;;;;;;;0.20;0.10;;;7.70;99.90;;;;;;21143056;28;20406;-69
2023/02/17 00:20:24;;;;;;;0.20;0.10;;;7.60;99.90;;;;;;21140152;28;20394;-68
2023/02/17 00:30:30;;;;;;;0.20;0.10;;;7.70;99.90;;;;;;21132398;28;20449;-69
2023/02/17 00:40:34;;;;;;;0.20;0.10;;;7.50;99.90;;;;;;21133015;28;20704;-69
2023/02/17 00:50:39;;;;;;;0.20;0.10;;;7.20;99.90;;;;;;21123319;28;20402;-69
2023/02/17 01:00:44;;;;;;;0.20;0.10;;;7.40;99.90;;;;;;21141515;28;20460;-69
2023/02/17 01:10:50;;;;;;;0.20;0.07;;;7.80;99.90;;;;;;21148544;28;20781;-68
2023/02/17 01:20:54;;;;;;;0.20;0.10;;;8.10;99.90;;;;;;21155378;28;20493;-67
2023/02/17 01:31:05;;;;;;;0.20;0.10;;;8.20;99.90;;;;;;21136589;28;20398;-69
2023/02/17 01:41:11;;;;;;;0.20;0.15;;;8.40;99.90;;;;;;21133426;28;20397;-69
2023/02/17 01:51:21;;;;;;;0.20;0.10;;;8.60;99.90;;;;;;21117648;28;20504;-69
2023/02/17 02:01:25;;;;;;;0.20;0.10;;;8.60;99.90;;;;;;21131822;28;20390;-69
2023/02/17 02:11:31;;;;;;;0.20;0.10;;;8.60;99.90;;;;;;21152415;28;20869;-69
2023/02/17 02:22:00;;;;;;;0.20;0.10;;;8.50;99.90;;;;;;21150977;28;20448;-68
2023/02/17 02:32:37;;;;;;;0.20;0.10;;;8.50;99.90;;;;;;21116557;28;20471;-69
2023/02/17 02:42:41;;;;;;;0.20;0.10;;;8.30;99.90;;;;;;21115674;28;20431;-69
2023/02/17 02:53:00;;;;;;;0.20;0.10;;;8.10;99.90;;;;;;21131717;28;21290;-68
2023/02/17 03:03:12;;;;;;;0.20;0.10;;;7.70;99.90;;;;;;21130941;28;20395;-68
2023/02/17 03:13:19;;;;;;;0.20;0.10;;;8.10;99.90;;;;;;21130603;28;20436;-68
2023/02/17 03:23:23;;;;;;;0.20;0.10;;;7.90;99.90;;;;;;21130053;28;20432;-69
2023/02/17 03:33:28;;;;;;;0.20;0.10;;;8.10;99.90;;;;;;21146785;28;20897;-68
2023/02/17 03:43:32;;;;;;;0.20;0.10;;;9.00;99.90;;;;;;21147107;28;20870;-69
2023/02/17 03:53:37;;;;;;;0.20;0.10;;;8.40;99.90;;;;;;21146064;28;20418;-70
2023/02/17 04:03:41;;;;;;;0.20;0.10;;;7.70;99.90;;;;;;21127637;28;20925;-70
2023/02/17 04:13:47;;;;;;;0.20;0.10;;;7.60;99.90;;;;;;21127079;28;20996;-69
2023/02/17 04:23:53;;;;;;;0.20;0.10;;;8.20;99.90;;;;;;21144975;28;20456;-69
2023/02/17 04:33:58;;;;;;;0.20;0.10;;;8.70;99.90;;;;;;21143568;28;20406;-68
2023/02/17 04:44:02;;;;;;;0.20;0.10;;;9.00;99.90;;;;;;21132489;28;20941;-68
2023/02/17 04:54:07;;;;;;;0.20;0.10;;;9.00;99.90;;;;;;21140881;28;20796;-68
2023/02/17 05:04:11;;;;;;;0.20;0.10;;;8.60;99.90;;;;;;21122965;28;20403;-68
2023/02/17 05:14:17;;;;;;;0.20;0.10;;;8.80;99.90;;;;;;21154599;28;20528;-68
2023/02/17 05:24:21;;;;;;;0.20;0.10;;;8.70;99.90;;;;;;21138705;28;20391;-68
2023/02/17 05:34:26;;;;;;;0.20;0.10;;;8.50;99.90;;;;;;21156434;28;21200;-68
2023/02/17 05:44:30;;;;;;;0.20;0.10;;;8.50;99.90;;;;;;21154432;28;20489;-68
2023/02/17 05:54:36;;;;;;;0.27;0.23;;;8.40;99.90;;;;;;21153319;28;20480;-67
2023/02/17 06:04:40;;;;;;;0.20;0.10;;;8.30;99.90;;;;;;21136659;28;20395;-68
2023/02/17 06:14:45;;;;;;;0.20;0.10;;;8.40;99.90;;;;;;21153314;28;20481;-68
2023/02/17 06:24:49;;;;;;;0.20;0.10;;;7.90;99.90;;;;;;21133901;28;20437;-68
2023/02/17 06:34:54;;;;;;;0.20;0.10;;;8.10;99.90;;;;;;21048665;28;20407;-68
2023/02/17 06:44:59;;;;;;;0.20;0.10;;;7.90;99.90;;;;;;21037411;28;20399;-69
2023/02/17 06:55:05;;;;;;;0.20;0.10;;;8.50;99.90;;;;;;20978897;28;20405;-68
2023/02/17 07:05:09;;;;;;;0.20;0.10;;;8.30;99.90;;;;;;20976013;28;20752;-70
2023/02/17 07:15:14;;;;;;;0.20;0.10;;;8.10;99.90;;;;;;20961677;28;20438;-71
2023/02/17 07:25:18;;;;;;;0.20;0.10;;;7.90;99.90;;;;;;20980270;28;20455;-70
2023/02/17 07:35:24;;;;;;;0.20;0.10;;;8.10;99.90;;;;;;21130808;28;20420;-70
2023/02/17 07:45:28;;;;;;;0.20;0.10;;;8.50;99.90;;;;;;21144099;28;20418;-70
2023/02/17 07:55:33;;;;;;;2.80;2.70;;;8.90;99.90;;;;;;21144154;28;20403;-69
2023/02/17 08:05:40;;;;;;;0.20;0.10;;;9.40;99.90;;;;;;21126028;28;20425;-70
2023/02/17 08:15:45;;;;;;;0.20;0.10;;;9.60;99.90;;;;;;21144129;28;20414;-71
2023/02/17 08:25:49;;;;;;;0.20;0.10;;;10.00;99.90;;;;;;21140993;28;20396;-68
2023/02/17 08:35:54;;;;;;;0.20;0.10;;;10.30;99.90;;;;;;21156457;28;20398;-68
2023/02/17 08:45:59;;;;;;;0.20;0.10;;;11.00;99.90;;;;;;21138958;28;21075;-69
2023/02/17 08:56:05;;;;;;;0.20;0.10;;;11.00;99.90;;;;;;21122218;28;20452;-70
2023/02/17 09:06:09;;;;;;;0.20;0.10;;;11.20;99.90;;;;;;21157953;28;20419;-69
2023/02/17 09:16:17;;;;;;;0.20;0.10;;;11.70;99.90;;;;;;21121227;28;20417;-68
2023/02/17 09:26:21;;;;;;;0.20;0.10;;;12.40;99.90;;;;;;21155183;28;20395;-68
2023/02/17 09:36:29;;;;;;;0.20;0.10;;;12.70;99.90;;;;;;21136071;28;21190;-69
2023/02/17 09:46:38;;;;;;;0.20;0.10;;;13.40;99.90;;;;;;21133988;28;20428;-69
2023/02/17 09:56:57;;;;;;;0.20;0.00;;;13.40;99.90;;;;;;21134367;28;20406;-67
2023/02/17 10:07:07;;;;;;;0.20;0.10;;;13.30;99.90;;;;;;21114689;28;20440;-68
2023/02/17 10:17:22;;;;;;;0.20;0.03;;;13.30;99.90;;;;;;21130645;28;20472;-68
2023/02/17 10:27:39;;;;;;;0.20;0.10;;;13.80;99.90;;;;;;21145507;28;20398;-68
2023/02/17 10:37:48;;;;;;;0.20;0.10;;;14.10;99.90;;;;;;21142677;28;20398;-68
2023/02/17 10:47:58;;;;;;;0.20;0.10;;;14.90;99.90;;;;;;21113245;28;20438;-70
2023/02/17 10:58:07;;;;;;;0.20;0.10;;;15.50;99.90;;;;;;21142265;28;20593;-69
2023/02/17 11:08:28;;;;;;;0.20;0.10;;;16.80;99.90;;;;;;21141016;28;20474;-69
2023/02/17 11:18:39;;;;;;;0.20;0.10;;;18.30;99.90;;;;;;21143050;28;20858;-67
2023/02/17 11:28:43;;;;;;;0.20;0.03;;;18.90;99.90;;;;;;21141926;28;20974;-69
2023/02/17 11:38:48;;;;;;;0.23;0.10;;;19.00;99.90;;;;;;21108029;28;20836;-63
2023/02/17 11:49:24;;;;;;;1.20;1.20;;;19.70;99.90;;;;;;21122506;28;20390;-69
2023/02/17 11:59:40;;;;;;;0.20;0.20;;;20.30;99.90;;;;;;21138872;28;20409;-67
2023/02/17 12:09:52;;;;;;;0.20;0.00;;;19.30;99.90;;;;;;21120624;28;20422;-69
2023/02/17 12:20:08;;;;;;;0.20;0.00;;;18.80;99.90;;;;;;21141327;28;20386;-68
2023/02/17 12:30:41;;;;;;;0.20;0.10;;;18.60;99.90;;;;;;21137169;28;20434;-67
2023/02/17 12:40:52;;;;;;;0.20;0.08;;;18.50;99.90;;;;;;21133106;28;20442;-69
2023/02/17 12:51:02;;;;;;;0.20;0.10;;;19.40;99.90;;;;;;21118476;28;20406;-69
2023/02/17 13:01:13;;;;;;;0.20;0.10;;;20.40;99.90;;;;;;21140608;28;20414;-69
2023/02/17 13:11:28;;;;;;;0.20;0.10;;;20.60;99.90;;;;;;21152785;28;20417;-69
2023/02/17 13:21:34;;;;;;;0.20;0.00;;;20.80;99.90;;;;;;21156505;28;20853;-69
2023/02/17 13:32:00;;;;;;;0.20;0.10;;;20.70;99.90;;;;;;21154594;28;20399;-69
2023/02/17 13:42:44;;;;;;;0.20;0.10;;;20.20;99.90;;;;;;21114510;28;20398;-68
2023/02/17 13:52:48;;;;;;;0.20;0.10;;;21.20;99.90;;;;;;21098617;28;21286;-68
2023/02/17 14:02:56;;;;;;;0.20;0.00;;;21.60;99.90;;;;;;21132456;28;20480;-69
2023/02/17 14:13:00;;;;;;;0.20;0.10;;;21.80;99.90;;;;;;21130606;28;20460;-68
2023/02/17 14:23:10;;;;;;;0.20;0.10;;;21.90;99.90;;;;;;21127913;28;20395;-68
2023/02/17 14:33:21;;;;;;;0.20;0.00;;;22.30;99.90;;;;;;21113890;28;20492;-68
2023/02/17 14:43:26;;;;;;;0.20;0.00;;;22.30;99.90;;;;;;21144642;28;20468;-68
2023/02/17 14:53:35;;;;;;;0.20;0.08;;;22.30;99.90;;;;;;21170865;27;20418;-69
2023/02/17 15:03:40;;;;;;;0.20;0.10;;;22.10;99.90;;;;;;21175987;27;20397;-68
2023/02/17 15:13:44;;;;;;;0.20;0.00;;;21.30;99.90;;;;;;21163631;27;20511;-68
2023/02/17 15:23:49;;;;;;;0.20;0.00;;;21.20;99.90;;;;;;21181592;27;21039;-67
2023/02/17 15:33:57;;;;;;;0.20;0.10;;;21.40;99.90;;;;;;21175868;27;20430;-66
2023/02/17 15:44:05;;;;;;;0.20;0.00;;;20.50;99.90;;;;;;21138740;27;21160;-66
2023/02/17 15:54:11;;;;;;;0.20;0.00;;;18.70;99.90;;;;;;21158174;27;20409;-67
2023/02/17 16:04:17;;;;;;;0.20;0.00;;;19.70;99.90;;;;;;21168620;27;20770;-71
2023/02/17 16:14:26;;;;;;;0.20;0.00;;;19.70;99.90;;;;;;21158966;27;20468;-67
2023/02/17 16:24:31;;;;;;;0.20;0.00;;;18.90;99.90;;;;;;21165518;28;20849;-67
2023/02/17 16:34:35;;;;;;;0.20;0.05;;;18.40;99.90;;;;;;21150638;28;20402;-65
2023/02/17 16:44:40;;;;;;;0.20;0.10;;;17.30;99.90;;;;;;21136859;28;20398;-68
2023/02/17 16:54:44;;;;;;;0.20;0.05;;;16.70;99.90;;;;;;21137837;28;20533;-65
2023/02/17 17:04:49;;;;;;;0.20;0.10;;;15.60;99.90;;;;;;21137798;28;20777;-67
2023/02/17 17:14:53;;;;;;;0.20;0.00;;;15.30;99.90;;;;;;21136914;28;20407;-67
2023/02/17 17:24:58;;;;;;;0.20;0.00;;;14.30;99.90;;;;;;21137236;28;20391;-67
2023/02/17 17:35:02;;;;;;;0.20;0.10;;;14.10;99.90;;;;;;21142482;28;20856;-67
2023/02/17 17:45:08;;;;;;;0.20;0.10;;;13.80;99.90;;;;;;21133252;28;20434;-67
2023/02/17 17:55:12;;;;;;;0.20;0.10;;;13.50;99.90;;;;;;21151515;28;21038;-67
2023/02/17 18:05:18;;;;;;;0.20;0.10;;;12.60;99.90;;;;;;21126184;28;20388;-66
2023/02/17 18:15:22;;;;;;;0.20;0.00;;;12.30;99.90;;;;;;21056739;28;20655;-67
2023/02/17 18:25:27;;;;;;;0.20;0.00;;;11.90;99.90;;;;;;21074368;28;20418;-65
2023/02/17 18:35:34;;;;;;;0.20;0.00;;;11.60;99.90;;;;;;21070717;28;20424;-66
2023/02/17 18:45:39;;;;;;;0.20;0.00;;;11.40;99.90;;;;;;21069988;28;20507;-66
2023/02/17 18:55:44;;;;;;;0.20;0.10;;;11.20;99.90;;;;;;21122261;28;20411;-68
2023/02/17 19:05:49;;;;;;;0.20;0.10;;;11.10;99.90;;;;;;21131674;28;20395;-67
2023/02/17 19:15:53;;;;;;;0.20;0.10;;;10.80;99.90;;;;;;21128431;28;20501;-66
2023/02/17 19:26:01;;;;;;;0.20;0.10;;;10.90;99.90;;;;;;21144503;28;20406;-67
2023/02/17 19:36:07;;;;;;;0.20;0.10;;;10.60;99.90;;;;;;21124085;28;20911;-67
2023/02/17 19:46:14;;;;;;;0.20;0.10;;;10.80;99.90;;;;;;21158152;27;20498;-67
2023/02/17 19:56:20;;;;;;;0.20;0.10;;;10.60;99.90;;;;;;21143814;28;20878;-65
2023/02/17 20:06:27;;;;;;;0.20;0.10;;;10.50;99.90;;;;;;21123531;28;20405;-66
2023/02/17 20:16:31;;;;;;;0.20;0.10;;;10.20;99.90;;;;;;21104486;28;20421;-68
2023/02/17 20:26:43;;;;;;;0.20;0.10;;;10.10;99.90;;;;;;21123494;28;20395;-69
2023/02/17 20:36:46;;;;;;;0.20;0.10;;;10.10;99.90;;;;;;21120216;28;20402;-67
2023/02/17 20:46:52;;;;;;;0.20;0.10;;;10.30;99.90;;;;;;21138973;28;20421;-66
2023/02/17 20:56:59;;;;;;;0.20;0.10;;;9.60;99.90;;;;;;21140605;28;20804;-66
2023/02/17 21:07:05;;;;;;;0.20;0.10;;;9.80;99.90;;;;;;21119482;28;21223;-67
2023/02/17 21:17:09;;;;;;;0.20;0.10;;;9.50;99.90;;;;;;21134913;28;20409;-67
2023/02/17 21:27:14;;;;;;;0.20;0.00;;;9.60;99.90;;;;;;21137087;28;20515;-66
2023/02/17 21:37:18;;;;;;;0.20;0.10;;;9.70;99.90;;;;;;21125384;28;20406;-67
2023/02/17 21:47:23;;;;;;;0.20;0.10;;;9.70;99.90;;;;;;21152258;28;20773;-66
2023/02/17 21:57:27;;;;;;;0.20;0.10;;;9.50;99.90;;;;;;21142545;28;20411;-67
2023/02/17 22:07:32;;;;;;;0.20;0.10;;;9.00;99.90;;;;;;21138725;28;20730;-66
2023/02/17 22:17:36;;;;;;;0.20;0.10;;;9.30;99.90;;;;;;21150586;28;20515;-66
2023/02/17 22:27:42;;;;;;;0.20;0.10;;;9.00;99.90;;;;;;21151046;28;20522;-66
2023/02/17 22:37:45;;;;;;;0.20;0.10;;;9.90;99.90;;;;;;21146558;28;20743;-67
2023/02/17 22:47:52;;;;;;;0.20;0.10;;;10.50;99.90;;;;;;21133989;28;20830;-66
2023/02/17 22:58:00;;;;;;;0.20;0.10;;;10.20;99.90;;;;;;21121722;28;20407;-68
2023/02/17 23:08:05;;;;;;;0.20;0.10;;;10.20;99.90;;;;;;21146119;28;20402;-66
2023/02/17 23:18:10;;;;;;;0.20;0.10;;;10.20;99.90;;;;;;21145999;28;21283;-66
2023/02/17 23:28:16;;;;;;;0.20;0.10;;;10.00;99.90;;;;;;21146023;28;20407;-66
2023/02/17 23:38:21;;;;;;;0.20;0.10;;;9.50;99.90;;;;;;21145216;28;20504;-66
2023/02/17 23:48:26;;;;;;;0.20;0.10;;;9.50;99.90;;;;;;21134491;28;20382;-68
2023/02/17 23:58:30;;;;;;;0.20;0.10;;;9.50;99.90;;;;;;21142709;28;20869;-67
